Time;durP1;ratioP1;P1;durP2;ratioP2;P2;SDS_P1;SDS_P2;PMS_P1;PMS_P2;Temp;Humidity;BMP_temperature;BMP_pressure;BME280_temperature;BME280_humidity;BME280_pressure;Samples;Min_cycle;Max_cycle;Signal;HPM_P1;HPM_P2
2023/05/26 00:02:01;;;;;;;27.30;4.50;;;;;;;14.05;58.63;103123.22;5030054;28;20068;-44
2023/05/26 00:04:27;;;;;;;21.58;4.35;;;;;;;14.05;58.39;103125.84;5029724;28;20033;-45
2023/05/26 00:06:55;;;;;;;23.83;4.43;;;;;;;14.08;58.48;103121.63;5028332;28;20484;-48
2023/05/26 00:09:21;;;;;;;24.42;4.93;;;;;;;14.12;58.25;103118.25;5029953;28;20484;-49
2023/05/26 00:11:47;;;;;;;21.75;5.05;;;;;;;14.06;58.45;103114.53;5029064;28;20048;-45
2023/05/26 00:14:14;;;;;;;21.63;4.40;;;;;;;14.00;58.67;103127.44;5030159;28;20036;-45
2023/05/26 00:16:43;;;;;;;18.00;3.85;;;;;;;13.93;58.79;103123.69;5029579;28;20039;-46
2023/05/26 00:19:08;;;;;;;21.67;4.65;;;;;;;14.00;58.63;103130.94;5030244;28;20033;-46
2023/05/26 00:21:35;;;;;;;21.48;4.20;;;;;;;13.97;58.62;103132.56;5027481;28;20124;-48
2023/05/26 00:24:01;;;;;;;21.88;4.80;;;;;;;13.89;59.02;103132.31;5029638;28;20546;-45
2023/05/26 00:26:26;;;;;;;21.52;4.63;;;;;;;13.87;59.15;103138.31;5029922;28;20124;-44
2023/05/26 00:28:51;;;;;;;17.92;4.55;;;;;;;13.85;59.18;103138.25;5028104;28;20538;-46
2023/05/26 00:31:17;;;;;;;18.80;4.13;;;;;;;13.79;59.20;103141.56;5032157;28;20057;-43
2023/05/26 00:33:42;;;;;;;22.55;4.70;;;;;;;13.78;59.11;103142.38;5029961;28;20045;-44
2023/05/26 00:36:08;;;;;;;12.93;3.92;;;;;;;13.64;59.44;103140.13;5029896;28;20054;-45
2023/05/26 00:38:33;;;;;;;24.45;4.53;;;;;;;13.67;59.51;103143.72;5029693;28;20681;-45
2023/05/26 00:40:58;;;;;;;16.17;4.32;;;;;;;13.61;59.65;103140.88;5029945;28;20039;-45
2023/05/26 00:43:24;;;;;;;21.85;4.63;;;;;;;13.62;59.69;103141.78;5029757;28;20044;-44
2023/05/26 00:45:49;;;;;;;18.73;4.25;;;;;;;13.58;59.68;103140.78;5029134;28;20507;-44
2023/05/26 00:48:15;;;;;;;17.35;4.30;;;;;;;13.55;59.82;103143.28;5029623;28;20076;-48
2023/05/26 00:50:41;;;;;;;18.40;4.10;;;;;;;13.41;60.50;103141.88;5028799;28;20046;-45
2023/05/26 00:53:07;;;;;;;18.13;4.20;;;;;;;13.55;59.82;103145.00;5029133;28;20036;-45
2023/05/26 00:55:33;;;;;;;17.45;4.07;;;;;;;13.38;60.76;103139.13;5030063;28;20052;-48
2023/05/26 00:57:59;;;;;;;25.63;4.45;;;;;;;13.32;61.12;103137.19;5030759;28;20025;-48
2023/05/26 01:00:26;;;;;;;22.83;4.55;;;;;;;13.43;60.60;103139.28;5030360;28;20538;-45
2023/05/26 01:02:55;;;;;;;17.70;4.03;;;;;;;13.31;60.77;103134.50;5030122;28;20041;-51
2023/05/26 01:05:21;;;;;;;20.52;4.22;;;;;;;13.39;60.24;103136.59;5030530;28;20033;-46
2023/05/26 01:07:46;;;;;;;14.50;3.85;;;;;;;13.37;60.32;103142.59;5029706;28;20033;-44
2023/05/26 01:10:12;;;;;;;22.45;4.00;;;;;;;13.21;60.87;103140.22;5029895;28;20030;-46
2023/05/26 01:12:43;;;;;;;24.23;4.30;;;;;;;13.29;60.78;103141.41;5028719;28;20044;-47
2023/05/26 01:15:17;;;;;;;18.85;4.00;;;;;;;13.27;60.58;103146.59;5029922;28;20143;-44
2023/05/26 01:18:08;;;;;;;16.33;3.50;;;;;;;13.30;60.32;103140.56;5029455;28;20464;-43
2023/05/26 01:20:42;;;;;;;19.83;3.65;;;;;;;13.24;60.68;103135.97;5029650;28;20458;-44
2023/05/26 01:23:29;;;;;;;17.27;3.83;;;;;;;13.16;61.21;103141.78;5030389;28;20026;-45
2023/05/26 01:26:21;;;;;;;22.98;3.78;;;;;;;13.29;60.54;103141.41;5028989;28;20037;-47
2023/05/26 01:28:50;;;;;;;17.10;3.67;;;;;;;13.28;60.32;103147.50;5028857;28;20557;-45
2023/05/26 01:31:16;;;;;;;20.98;3.92;;;;;;;13.32;59.92;103146.75;5029630;28;20038;-46
2023/05/26 01:33:41;;;;;;;19.48;3.30;;;;;;;13.18;60.24;103150.56;5028455;28;20410;-44
2023/05/26 01:36:06;;;;;;;21.52;4.00;;;;;;;13.19;60.44;103152.34;5028999;28;20076;-47
2023/05/26 01:38:32;;;;;;;24.98;3.70;;;;;;;13.26;60.10;103151.78;5029015;28;20125;-47
2023/05/26 01:41:09;;;;;;;17.02;3.55;;;;;;;13.25;60.05;103144.75;5030564;28;20040;-48
2023/05/26 01:43:55;;;;;;;21.60;3.90;;;;;;;12.92;61.17;103155.66;5032069;28;20049;-44
2023/05/26 01:46:29;;;;;;;15.50;3.50;;;;;;;12.99;60.65;103156.81;5032714;28;20052;-44
2023/05/26 01:48:58;;;;;;;20.60;3.80;;;;;;;12.99;60.21;103160.28;5032147;28;20147;-44
2023/05/26 01:51:26;;;;;;;16.40;3.67;;;;;;;12.91;60.46;103159.09;5032718;28;20045;-44
2023/05/26 01:53:55;;;;;;;24.60;4.20;;;;;;;12.80;60.70;103167.38;5031667;28;20047;-45
2023/05/26 01:56:21;;;;;;;21.65;4.30;;;;;;;12.73;60.76;103163.59;5032529;28;20034;-45
2023/05/26 01:58:48;;;;;;;13.70;3.53;;;;;;;12.63;61.50;103166.66;5032170;28;20065;-46
2023/05/26 02:01:13;;;;;;;20.85;4.15;;;;;;;12.46;61.81;103165.94;5032543;28;20531;-48
2023/05/26 02:03:38;;;;;;;15.63;3.88;;;;;;;12.62;61.30;103164.88;5013603;28;20374;-45
2023/05/26 02:06:04;;;;;;;17.05;3.90;;;;;;;12.66;61.15;103173.75;5032895;28;20029;-47
2023/05/26 02:08:29;;;;;;;16.77;4.10;;;;;;;12.70;60.90;103170.41;5015503;28;20453;-45
2023/05/26 02:10:54;;;;;;;20.08;4.07;;;;;;;12.72;61.07;103174.00;5014530;28;20495;-47
2023/05/26 02:13:20;;;;;;;18.55;3.70;;;;;;;12.60;60.98;103166.53;5032507;28;20037;-44
2023/05/26 02:15:45;;;;;;;15.60;3.88;;;;;;;12.69;61.06;103180.00;5031582;28;20057;-45
2023/05/26 02:18:11;;;;;;;19.27;3.72;;;;;;;12.68;61.14;103175.59;5032840;28;20037;-44
2023/05/26 02:20:37;;;;;;;16.85;3.65;;;;;;;12.66;61.61;103172.03;5031195;28;20171;-49
2023/05/26 02:23:02;;;;;;;16.50;3.65;;;;;;;12.79;60.76;103173.44;5034788;28;20064;-45
2023/05/26 02:25:27;;;;;;;14.55;3.55;;;;;;;12.79;60.94;103171.69;5034927;28;20056;-45
2023/05/26 02:27:53;;;;;;;19.20;3.67;;;;;;;12.68;61.46;103179.94;5033916;28;20041;-45
2023/05/26 02:30:18;;;;;;;14.52;3.25;;;;;;;12.83;61.01;103180.56;5032199;28;20030;-45
2023/05/26 02:32:44;;;;;;;15.55;3.78;;;;;;;12.83;60.92;103176.22;5030932;28;20044;-46
2023/05/26 02:35:09;;;;;;;16.75;3.53;;;;;;;12.84;60.82;103174.50;5031917;28;20056;-46
2023/05/26 02:37:34;;;;;;;19.50;4.03;;;;;;;12.70;61.25;103171.31;5031724;28;20460;-46
2023/05/26 02:40:00;;;;;;;19.00;3.53;;;;;;;12.77;61.30;103168.13;5032624;28;20029;-48
2023/05/26 02:42:25;;;;;;;19.33;3.42;;;;;;;12.75;61.46;103174.09;5032155;28;20057;-45
2023/05/26 02:44:50;;;;;;;17.05;3.55;;;;;;;12.73;61.51;103175.78;5032351;28;20041;-45
2023/05/26 02:47:16;;;;;;;17.65;3.70;;;;;;;12.81;61.55;103180.50;5036651;28;20030;-47
2023/05/26 02:49:42;;;;;;;19.27;3.85;;;;;;;12.80;61.81;103172.59;5035537;28;20313;-47
2023/05/26 02:52:08;;;;;;;15.80;3.67;;;;;;;12.75;61.89;103181.97;5034619;28;20029;-45
2023/05/26 02:54:33;;;;;;;18.27;4.00;;;;;;;12.86;61.74;103180.69;5032331;28;20029;-43
2023/05/26 02:56:58;;;;;;;14.70;3.60;;;;;;;12.92;61.70;103175.72;5032071;28;20458;-43
2023/05/26 02:59:23;;;;;;;21.40;3.70;;;;;;;12.89;61.78;103184.31;5037325;28;20041;-44
2023/05/26 03:01:49;;;;;;;18.75;3.80;;;;;;;12.88;61.99;103176.41;5019021;28;20037;-45
2023/05/26 03:04:14;;;;;;;18.45;3.40;;;;;;;12.92;61.78;103179.22;5036408;28;20512;-46
2023/05/26 03:06:41;;;;;;;14.68;3.30;;;;;;;12.96;61.35;103175.00;5032271;28;20060;-44
2023/05/26 03:09:07;;;;;;;21.15;3.90;;;;;;;12.93;61.86;103174.84;5031523;28;20060;-43
2023/05/26 03:11:32;;;;;;;19.33;3.45;;;;;;;12.98;61.63;103179.47;5031058;28;20033;-45
2023/05/26 03:13:57;;;;;;;19.83;3.35;;;;;;;12.96;61.87;103181.13;5030153;28;20037;-46
2023/05/26 03:16:23;;;;;;;15.75;3.40;;;;;;;13.07;61.43;103184.16;5031089;28;20034;-44
2023/05/26 03:18:49;;;;;;;17.35;3.38;;;;;;;13.07;61.39;103175.41;5030002;28;20369;-45
2023/05/26 03:21:16;;;;;;;16.75;3.97;;;;;;;13.10;61.54;103181.69;5030037;28;20451;-45
2023/05/26 03:23:41;;;;;;;15.77;3.28;;;;;;;13.05;61.82;103180.63;5030798;28;20654;-46
2023/05/26 03:26:06;;;;;;;17.63;3.53;;;;;;;13.14;61.33;103177.47;5030473;28;20120;-46
2023/05/26 03:28:32;;;;;;;15.95;3.65;;;;;;;13.11;61.71;103183.47;5031585;28;20033;-46
2023/05/26 03:30:58;;;;;;;16.67;3.45;;;;;;;13.11;61.76;103191.34;5031194;28;20116;-47
2023/05/26 03:33:23;;;;;;;15.18;3.90;;;;;;;13.11;61.68;103183.47;5031186;28;20034;-44
2023/05/26 03:35:48;;;;;;;27.60;4.00;;;;;;;13.12;61.62;103186.97;5030692;28;20034;-48
2023/05/26 03:38:13;;;;;;;16.70;4.00;;;;;;;13.13;61.73;103184.44;5030766;28;20479;-45
2023/05/26 03:40:39;;;;;;;17.98;3.80;;;;;;;13.18;61.51;103185.50;5030047;28;20048;-46
2023/05/26 03:43:04;;;;;;;20.42;4.20;;;;;;;13.06;62.11;103184.09;5030186;28;20618;-45
2023/05/26 03:45:30;;;;;;;18.77;3.72;;;;;;;13.20;61.52;103188.19;5030664;28;20551;-45
2023/05/26 03:47:55;;;;;;;18.88;3.83;;;;;;;13.13;62.04;103191.41;5029886;28;20057;-49
2023/05/26 03:50:20;;;;;;;15.27;3.33;;;;;;;13.25;61.82;103194.50;5030422;28;20076;-45
2023/05/26 03:52:46;;;;;;;18.92;3.80;;;;;;;13.34;61.06;103200.13;5029957;28;20072;-44
2023/05/26 03:55:11;;;;;;;16.65;3.28;;;;;;;13.32;61.15;103196.53;5030091;28;20029;-49
2023/05/26 03:57:37;;;;;;;17.73;3.38;;;;;;;13.33;61.37;103191.38;5029990;28;20527;-47
2023/05/26 04:00:05;;;;;;;19.35;3.85;;;;;;;13.27;61.46;103198.09;5030294;28;20046;-45
2023/05/26 04:02:31;;;;;;;13.35;3.72;;;;;;;13.18;61.66;103196.00;5030096;28;20095;-46
2023/05/26 04:04:56;;;;;;;21.33;3.90;;;;;;;13.38;61.49;103197.69;5029591;28;20487;-46
2023/05/26 04:07:21;;;;;;;15.60;3.60;;;;;;;13.45;61.16;103201.44;5030699;28;20049;-45
2023/05/26 04:09:47;;;;;;;18.33;3.38;;;;;;;13.46;61.41;103195.34;5031294;28;20034;-48
2023/05/26 04:12:12;;;;;;;22.50;3.97;;;;;;;13.54;61.26;103196.50;5030633;28;20099;-49
2023/05/26 04:14:37;;;;;;;15.38;3.28;;;;;;;13.59;61.41;103200.22;5029455;28;20030;-46
2023/05/26 04:17:03;;;;;;;18.00;3.53;;;;;;;13.74;61.06;103197.28;5029945;28;20057;-44
2023/05/26 04:19:28;;;;;;;17.60;3.85;;;;;;;13.80;60.55;103203.66;5030107;28;20030;-45
2023/05/26 04:21:53;;;;;;;20.20;3.88;;;;;;;13.84;60.34;103198.53;5029472;28;20141;-47
2023/05/26 04:24:19;;;;;;;20.00;3.97;;;;;;;13.89;60.09;103197.84;5030614;28;20034;-47
2023/05/26 04:26:44;;;;;;;23.23;3.70;;;;;;;13.97;59.78;103198.13;5012171;28;20037;-43
2023/05/26 04:29:10;;;;;;;19.58;3.75;;;;;;;14.03;59.42;103195.72;5029894;28;20036;-45
2023/05/26 04:31:40;;;;;;;18.98;3.80;;;;;;;14.15;59.30;103196.16;5029079;28;20041;-48
2023/05/26 04:34:06;;;;;;;21.98;3.90;;;;;;;14.06;59.20;103201.97;5029901;28;20124;-45
2023/05/26 04:36:32;;;;;;;14.05;3.78;;;;;;;14.26;59.06;103194.81;5029556;28;20116;-45
2023/05/26 04:38:58;;;;;;;15.20;3.22;;;;;;;14.31;58.54;103205.47;5029280;28;20025;-44
2023/05/26 04:41:24;;;;;;;15.93;3.70;;;;;;;14.37;58.80;103203.06;5029731;28;20038;-50
2023/05/26 04:43:50;;;;;;;17.13;4.07;;;;;;;14.42;58.21;103205.03;5030123;28;20041;-43
2023/05/26 04:46:16;;;;;;;19.98;4.10;;;;;;;14.59;58.28;103209.13;5032356;28;20041;-44
2023/05/26 04:48:42;;;;;;;18.90;3.65;;;;;;;14.71;57.95;103203.41;5031056;28;20040;-45
2023/05/26 04:51:07;;;;;;;16.38;3.63;;;;;;;14.77;57.88;103210.56;5012984;28;20128;-44
2023/05/26 04:53:33;;;;;;;18.08;4.15;;;;;;;14.75;57.39;103214.91;5029983;28;20040;-44
2023/05/26 04:56:00;;;;;;;19.95;4.28;;;;;;;14.86;56.70;103218.78;5029411;28;20063;-49
2023/05/26 04:58:26;;;;;;;20.63;4.05;;;;;;;14.93;56.09;103223.41;5029681;28;20026;-46
2023/05/26 05:00:53;;;;;;;17.15;3.85;;;;;;;15.11;55.87;103225.72;5011975;28;20036;-46
2023/05/26 05:03:20;;;;;;;19.48;4.35;;;;;;;14.75;55.80;103228.94;5030637;28;20025;-48
2023/05/26 05:05:45;;;;;;;15.45;3.90;;;;;;;15.25;55.11;103227.94;5032299;28;20109;-45
2023/05/26 05:08:11;;;;;;;22.23;4.00;;;;;;;15.63;54.80;103226.53;5034246;28;20056;-47
2023/05/26 05:10:36;;;;;;;19.20;4.00;;;;;;;15.79;53.68;103236.66;5030946;28;20053;-46
2023/05/26 05:13:01;;;;;;;25.70;4.10;;;;;;;16.33;51.19;103244.34;5030936;28;20100;-49
2023/05/26 05:15:26;;;;;;;23.90;3.95;;;;;;;17.14;48.62;103231.50;5030258;28;20068;-46
2023/05/26 05:17:52;;;;;;;18.48;3.78;;;;;;;18.52;46.12;103233.56;5032980;28;20033;-47
2023/05/26 05:20:17;;;;;;;28.23;10.07;;;;;;;18.86;44.67;103235.97;5033646;28;20091;-44
2023/05/26 05:22:43;;;;;;;26.23;4.60;;;;;;;19.24;42.85;103238.31;5032990;28;20053;-44
2023/05/26 05:25:08;;;;;;;20.85;4.50;;;;;;;19.59;41.56;103237.09;5033115;28;20395;-50
2023/05/26 05:27:34;;;;;;;21.67;4.38;;;;;;;19.85;41.20;103243.63;5031892;28;20484;-49
2023/05/26 05:29:59;;;;;;;21.60;4.30;;;;;;;20.07;40.59;103235.94;5033360;28;20079;-45
2023/05/26 05:32:25;;;;;;;19.88;4.43;;;;;;;20.16;39.71;103241.34;5032885;28;20069;-47
2023/05/26 05:34:50;;;;;;;19.35;4.18;;;;;;;20.69;39.48;103241.03;5032427;28;20044;-50
2023/05/26 05:37:16;;;;;;;20.08;3.95;;;;;;;21.06;37.91;103236.06;5033065;28;20036;-50
2023/05/26 05:39:41;;;;;;;19.20;3.80;;;;;;;20.85;38.70;103248.25;5032754;28;20495;-45
2023/05/26 05:42:06;;;;;;;18.83;3.95;;;;;;;21.03;37.52;103244.00;5033281;28;20512;-52
2023/05/26 05:44:31;;;;;;;25.23;3.92;;;;;;;20.94;38.59;103246.56;5033245;28;20045;-44
2023/05/26 05:46:57;;;;;;;25.08;4.22;;;;;;;21.26;36.96;103248.59;5033118;28;20074;-45
2023/05/26 05:49:23;;;;;;;19.13;3.88;;;;;;;21.38;36.48;103252.22;5033592;28;20037;-46
2023/05/26 05:51:48;;;;;;;26.17;4.30;;;;;;;20.90;37.78;103246.53;5033385;28;20037;-46
2023/05/26 05:54:13;;;;;;;21.65;4.20;;;;;;;21.20;37.46;103251.22;5034463;28;20030;-50
2023/05/26 05:56:39;;;;;;;18.42;3.85;;;;;;;21.38;36.18;103249.56;5034488;28;20036;-47
2023/05/26 05:59:05;;;;;;;17.25;3.80;;;;;;;21.96;35.98;103252.53;5035237;28;20436;-45
2023/05/26 06:01:30;;;;;;;15.52;3.78;;;;;;;22.46;34.46;103239.41;5033862;28;20037;-48
2023/05/26 06:03:55;;;;;;;15.07;3.78;;;;;;;22.65;33.68;103246.50;5032528;28;20047;-50
2023/05/26 06:06:20;;;;;;;20.08;4.10;;;;;;;21.35;36.11;103252.19;5033240;28;20045;-48
2023/05/26 06:08:46;;;;;;;16.52;3.78;;;;;;;22.20;35.39;103249.97;5032840;28;20055;-48
2023/05/26 06:11:11;;;;;;;14.82;3.38;;;;;;;22.88;34.06;103257.19;5033722;28;20068;-44
2023/05/26 06:13:36;;;;;;;15.55;4.00;;;;;;;22.06;34.27;103256.13;5032163;28;20503;-46
2023/05/26 06:16:02;;;;;;;15.90;3.70;;;;;;;22.60;33.77;103253.59;5032317;28;20038;-46
2023/05/26 06:18:27;;;;;;;23.40;4.40;;;;;;;22.27;34.13;103253.53;5032135;28;20443;-46
2023/05/26 06:20:52;;;;;;;15.32;3.70;;;;;;;23.01;33.76;103255.41;5031643;28;20064;-46
2023/05/26 06:23:18;;;;;;;11.85;3.30;;;;;;;23.37;33.65;103250.03;5032609;28;20088;-44
2023/05/26 06:25:43;;;;;;;17.90;4.00;;;;;;;23.05;33.41;103258.06;5032682;28;20030;-45
2023/05/26 06:28:09;;;;;;;20.60;4.03;;;;;;;22.84;33.36;103260.75;5032441;28;20029;-45
2023/05/26 06:30:34;;;;;;;15.18;3.78;;;;;;;24.04;32.00;103262.25;5032836;28;20785;-46
2023/05/26 06:32:59;;;;;;;18.33;3.67;;;;;;;23.35;33.16;103257.16;5032244;28;20081;-45
2023/05/26 06:35:25;;;;;;;18.23;3.95;;;;;;;22.30;34.06;103266.84;5033401;28;20128;-48
2023/05/26 06:37:50;;;;;;;20.08;3.95;;;;;;;23.09;33.32;103258.06;5032217;28;20736;-45
2023/05/26 06:40:16;;;;;;;16.35;4.00;;;;;;;23.04;32.82;103258.97;5033862;28;20424;-47
2023/05/26 06:42:41;;;;;;;18.13;3.92;;;;;;;22.92;33.26;103252.78;5031024;28;20095;-48
2023/05/26 06:45:07;;;;;;;18.35;3.88;;;;;;;23.25;33.06;103254.50;5031901;28;20033;-46
2023/05/26 06:47:32;;;;;;;18.48;3.97;;;;;;;22.62;33.86;103262.47;5031523;28;20030;-44
2023/05/26 06:49:58;;;;;;;17.25;4.40;;;;;;;22.75;33.67;103259.88;5029907;28;20033;-49
2023/05/26 06:52:23;;;;;;;14.85;3.88;;;;;;;23.89;32.54;103262.34;5030312;28;20040;-45
2023/05/26 06:54:48;;;;;;;17.63;3.85;;;;;;;24.51;30.73;103265.59;5031017;28;20095;-48
2023/05/26 06:57:14;;;;;;;18.38;3.88;;;;;;;24.16;30.92;103262.19;5031574;28;20087;-49
2023/05/26 06:59:41;;;;;;;14.48;3.92;;;;;;;24.55;30.71;103269.13;5031210;28;20037;-46
2023/05/26 07:02:06;;;;;;;20.42;3.85;;;;;;;23.54;31.74;103259.81;5031256;28;20053;-49
2023/05/26 07:04:35;;;;;;;16.73;4.05;;;;;;;24.08;31.56;103272.03;5071249;22;20044;-80
2023/05/26 07:07:09;;;;;;;16.15;3.88;;;;;;;24.51;30.99;103270.94;5074418;28;20124;-81
2023/05/26 07:09:35;;;;;;;18.55;4.13;;;;;;;24.54;30.90;103270.91;5063979;28;20044;-79
2023/05/26 07:12:00;;;;;;;21.00;4.00;;;;;;;24.77;30.48;103265.38;5060741;28;20039;-81
2023/05/26 07:14:25;;;;;;;14.85;3.65;;;;;;;25.03;29.96;103268.75;5084072;28;20032;-80
2023/05/26 07:16:57;;;;;;;15.43;3.75;;;;;;;24.64;30.29;103280.59;5086859;28;20041;-80
2023/05/26 07:19:22;;;;;;;18.15;4.10;;;;;;;24.31;30.48;103278.16;5056502;28;20056;-81
2023/05/26 07:21:54;;;;;;;14.98;3.75;;;;;;;24.24;30.93;103276.41;5072888;28;20071;-79
2023/05/26 07:24:22;;;;;;;15.95;4.00;;;;;;;23.20;32.25;103280.22;5072105;28;20028;-80
2023/05/26 07:27:03;;;;;;;16.42;4.05;;;;;;;23.79;31.17;103275.69;5053685;28;20044;-80
2023/05/26 07:29:28;;;;;;;17.10;4.10;;;;;;;22.86;32.70;103271.41;5071456;28;20615;-78
2023/05/26 07:31:54;;;;;;;18.60;4.05;;;;;;;23.80;32.16;103265.91;5071048;28;20055;-79
2023/05/26 07:34:20;;;;;;;14.95;4.03;;;;;;;24.64;31.13;103269.94;5071565;28;20064;-79
2023/05/26 07:36:45;;;;;;;17.77;4.25;;;;;;;24.78;30.19;103272.50;5070812;28;20032;-80
2023/05/26 07:39:10;;;;;;;17.75;4.13;;;;;;;24.88;30.59;103268.00;5057144;28;20047;-79
2023/05/26 07:41:36;;;;;;;16.38;3.85;;;;;;;25.47;30.33;103254.09;5076917;28;20039;-81
2023/05/26 07:44:04;;;;;;;14.68;3.92;;;;;;;25.09;29.86;103254.47;5073697;28;20025;-79
2023/05/26 07:46:29;;;;;;;14.77;3.65;;;;;;;25.22;29.72;103244.56;5072298;28;20129;-80
2023/05/26 07:49:04;;;;;;;12.63;3.58;;;;;;;25.71;29.45;103248.50;5070860;28;20473;-79
2023/05/26 07:51:32;;;;;;;14.20;3.92;;;;;;;24.78;29.35;103255.59;5072026;28;20040;-80
2023/05/26 07:54:10;;;;;;;18.52;3.60;;;;;;;24.33;30.22;103260.38;5070907;28;20024;-81
2023/05/26 07:56:35;;;;;;;20.05;3.90;;;;;;;25.10;29.86;103250.91;5053587;28;20068;-80
2023/05/26 07:59:01;;;;;;;12.95;3.63;;;;;;;24.88;29.39;103250.19;5072291;28;20033;-81
2023/05/26 08:01:38;;;;;;;17.70;3.70;;;;;;;25.09;28.80;103256.25;5074254;28;20049;-81
2023/05/26 08:04:15;;;;;;;15.43;4.00;;;;;;;25.49;27.88;103244.28;5076788;28;20032;-81
2023/05/26 08:06:41;;;;;;;15.45;3.58;;;;;;;25.23;28.57;103254.34;5075836;28;20060;-81
2023/05/26 08:09:15;;;;;;;16.20;4.28;;;;;;;24.68;28.43;103257.47;5074030;28;20056;-81
2023/05/26 08:11:41;;;;;;;16.70;3.83;;;;;;;23.57;30.50;103252.69;5076109;28;20036;-80
2023/05/26 08:14:06;;;;;;;15.30;3.50;;;;;;;24.08;30.50;103262.25;5060840;28;20062;-80
2023/05/26 08:16:32;;;;;;;19.30;3.90;;;;;;;24.49;30.21;103263.81;5073486;28;20098;-81
2023/05/26 08:18:57;;;;;;;18.27;3.90;;;;;;;24.80;29.59;103259.16;5072000;28;20067;-80
2023/05/26 08:21:26;;;;;;;17.42;3.97;;;;;;;25.44;28.74;103255.00;5071179;28;20032;-80
2023/05/26 08:23:54;;;;;;;15.40;3.63;;;;;;;25.84;28.24;103254.56;5070616;28;20067;-80
2023/05/26 08:26:20;;;;;;;13.90;3.65;;;;;;;24.99;28.55;103251.03;5071331;28;20048;-79
2023/05/26 08:28:45;;;;;;;20.33;3.90;;;;;;;23.15;31.53;103250.97;5051993;28;20397;-80
2023/05/26 08:31:11;;;;;;;15.68;4.40;;;;;;;22.80;32.55;103251.00;5070791;28;20024;-80
2023/05/26 08:33:36;;;;;;;16.92;4.15;;;;;;;21.22;34.88;103253.03;5068689;28;20036;-79
2023/05/26 08:36:01;;;;;;;15.45;4.07;;;;;;;20.70;37.03;103264.91;5071940;28;20043;-79
2023/05/26 08:38:27;;;;;;;16.48;4.20;;;;;;;20.18;37.02;103266.09;5054303;28;20029;-79
2023/05/26 08:41:09;;;;;;;17.50;4.18;;;;;;;19.80;37.18;103265.63;5071058;28;20041;-79
2023/05/26 08:43:46;;;;;;;19.92;3.95;;;;;;;19.77;38.01;103261.16;5053084;28;20036;-78
2023/05/26 08:46:15;;;;;;;15.63;3.85;;;;;;;19.59;37.71;103265.31;5053020;28;20032;-79
2023/05/26 08:48:41;;;;;;;18.50;3.63;;;;;;;19.65;37.74;103258.34;5070341;28;20434;-79
2023/05/26 08:51:12;;;;;;;15.20;3.83;;;;;;;19.94;37.14;103269.34;5070119;28;20032;-79
2023/05/26 08:53:40;;;;;;;15.68;3.85;;;;;;;20.02;37.91;103275.59;5069915;28;20041;-80
2023/05/26 08:56:12;;;;;;;16.17;4.25;;;;;;;19.30;38.24;103275.44;5070818;28;20444;-79
2023/05/26 08:58:38;;;;;;;16.58;4.30;;;;;;;20.03;38.44;103268.56;5069633;28;20044;-80
2023/05/26 09:01:08;;;;;;;17.67;3.88;;;;;;;19.92;36.48;103264.91;5070378;28;20025;-80
2023/05/26 09:03:33;;;;;;;25.75;4.50;;;;;;;19.37;37.52;103270.28;5070036;28;20041;-80
2023/05/26 09:05:58;;;;;;;21.30;4.55;;;;;;;19.64;37.54;103268.94;5070763;28;20111;-79
2023/05/26 09:08:24;;;;;;;18.83;4.05;;;;;;;19.39;37.66;103262.38;5071399;28;20041;-78
2023/05/26 09:10:49;;;;;;;19.83;4.10;;;;;;;19.78;37.14;103262.94;5071167;28;20051;-79
2023/05/26 09:13:17;;;;;;;18.92;3.50;;;;;;;20.10;36.92;103265.13;5054350;28;20083;-78
2023/05/26 09:15:43;;;;;;;15.77;3.88;;;;;;;19.10;37.74;103267.19;5077235;28;20044;-79
2023/05/26 09:18:12;;;;;;;20.83;4.00;;;;;;;19.34;37.67;103275.50;5078741;28;20074;-77
2023/05/26 09:21:03;;;;;;;16.65;4.07;;;;;;;19.37;38.43;103274.69;5073073;28;20037;-79
2023/05/26 09:23:28;;;;;;;21.75;4.43;;;;;;;19.11;38.57;103276.00;5068801;28;20033;-81
2023/05/26 09:25:56;;;;;;;19.05;4.65;;;;;;;18.93;38.87;103269.56;5053659;28;20044;-79
2023/05/26 09:28:28;;;;;;;15.63;3.85;;;;;;;19.24;38.10;103281.53;5069627;28;20171;-79
2023/05/26 09:30:53;;;;;;;16.15;3.97;;;;;;;19.04;38.36;103281.22;5069542;28;20044;-80
2023/05/26 09:33:22;;;;;;;19.30;4.32;;;;;;;19.31;38.69;103286.06;5070521;28;20036;-80
2023/05/26 09:35:50;;;;;;;17.73;4.78;;;;;;;19.24;39.45;103276.25;5069457;28;20037;-80
2023/05/26 09:38:17;;;;;;;18.95;4.05;;;;;;;18.59;40.40;103270.75;5059467;28;20086;-80
2023/05/26 09:40:44;;;;;;;19.67;4.57;;;;;;;18.61;39.28;103265.47;5069009;28;20036;-78
2023/05/26 09:43:22;;;;;;;17.30;4.60;;;;;;;19.33;37.97;103272.88;5069610;28;20041;-80
2023/05/26 09:45:56;;;;;;;16.08;4.05;;;;;;;19.69;38.05;103262.84;5069234;28;20036;-78
2023/05/26 09:48:22;;;;;;;16.55;4.10;;;;;;;19.36;37.75;103271.16;5069707;28;20513;-79
2023/05/26 09:50:51;;;;;;;14.68;4.00;;;;;;;19.43;38.45;103267.72;5069812;28;20123;-77
2023/05/26 09:53:20;;;;;;;19.40;4.35;;;;;;;19.14;38.73;103265.50;5072303;28;20551;-79
2023/05/26 09:55:50;;;;;;;16.25;4.18;;;;;;;19.20;38.45;103265.59;5071633;28;20084;-79
2023/05/26 09:58:16;;;;;;;14.10;4.53;;;;;;;19.72;37.58;103265.50;5073605;28;20047;-79
2023/05/26 10:00:43;;;;;;;17.27;4.57;;;;;;;19.41;37.67;103264.16;5073119;28;20037;-80
2023/05/26 10:03:10;;;;;;;13.93;3.78;;;;;;;19.66;36.69;103260.13;5081801;28;20041;-80
2023/05/26 10:05:45;;;;;;;14.27;4.00;;;;;;;19.75;35.35;103257.63;5076298;28;20033;-77
2023/05/26 10:08:14;;;;;;;18.13;4.32;;;;;;;19.66;35.43;103257.50;5076900;28;20040;-80
2023/05/26 10:10:43;;;;;;;17.80;4.47;;;;;;;19.94;37.03;103260.50;5074756;28;20078;-78
2023/05/26 10:13:16;;;;;;;17.55;4.15;;;;;;;20.12;36.72;103251.03;5074033;28;20028;-78
2023/05/26 10:15:43;;;;;;;17.48;4.38;;;;;;;19.95;37.85;103262.25;5072655;28;20047;-79
2023/05/26 10:18:14;;;;;;;16.60;4.53;;;;;;;19.59;37.24;103250.34;5073847;28;20029;-80
2023/05/26 10:20:52;;;;;;;17.13;4.30;;;;;;;19.72;37.64;103256.69;5081751;28;20032;-77
2023/05/26 10:23:24;;;;;;;18.30;4.53;;;;;;;19.86;36.43;103263.06;5085176;28;20537;-79
2023/05/26 10:26:04;;;;;;;16.48;4.18;;;;;;;20.15;36.92;103251.06;5079870;28;20089;-79
2023/05/26 10:28:40;;;;;;;20.02;5.10;;;;;;;19.67;38.41;103250.44;5055691;28;20131;-79
2023/05/26 10:31:30;;;;;;;18.45;4.13;;;;;;;20.59;37.26;103246.25;5073404;28;20408;-78
2023/05/26 10:33:57;;;;;;;19.88;4.80;;;;;;;20.47;37.41;103245.25;5073857;28;20032;-79
2023/05/26 10:36:23;;;;;;;18.15;4.40;;;;;;;20.36;36.79;103244.25;5073036;28;20704;-79
2023/05/26 10:38:51;;;;;;;17.42;4.50;;;;;;;20.37;36.53;103251.34;5071965;28;20044;-78
2023/05/26 10:41:34;;;;;;;20.15;4.50;;;;;;;20.59;36.76;103255.97;5055734;28;20025;-79
2023/05/26 10:44:00;;;;;;;17.10;4.43;;;;;;;20.48;37.33;103241.72;5054869;28;20029;-79
2023/05/26 10:46:46;;;;;;;19.92;4.53;;;;;;;20.58;37.71;103256.84;5074732;28;20716;-78
2023/05/26 10:49:22;;;;;;;16.27;4.50;;;;;;;20.41;38.11;103250.50;5073023;28;20037;-78
2023/05/26 10:51:54;;;;;;;19.02;4.72;;;;;;;20.44;37.35;103253.16;5072270;28;20036;-77
2023/05/26 10:54:23;;;;;;;20.55;4.68;;;;;;;20.36;37.51;103242.50;5072753;28;20032;-79
2023/05/26 10:56:54;;;;;;;15.48;4.22;;;;;;;20.61;36.86;103248.94;5072320;28;20094;-78
2023/05/26 10:59:33;;;;;;;14.27;4.50;;;;;;;20.15;37.48;103253.69;5072760;28;20056;-78
2023/05/26 11:02:03;;;;;;;15.63;4.90;;;;;;;19.98;37.98;103247.31;5054698;28;20041;-78
2023/05/26 11:04:41;;;;;;;17.63;4.82;;;;;;;20.37;37.48;103246.03;5055046;28;20078;-78
2023/05/26 11:07:15;;;;;;;18.90;5.00;;;;;;;20.06;37.56;103242.13;5072604;28;20109;-77
2023/05/26 11:09:56;;;;;;;19.52;4.47;;;;;;;19.73;38.51;103240.84;5072527;28;20044;-80
2023/05/26 11:12:30;;;;;;;16.33;4.40;;;;;;;20.20;36.86;103240.50;5072905;28;20032;-80
2023/05/26 11:14:58;;;;;;;17.02;4.80;;;;;;;20.56;36.67;103238.25;5072567;28;20064;-79
2023/05/26 11:17:24;;;;;;;16.85;4.22;;;;;;;20.61;36.61;103230.38;5072818;28;20074;-78
2023/05/26 11:19:54;;;;;;;17.05;4.35;;;;;;;20.58;37.01;103246.25;5072672;28;20039;-77